Time;durP1;ratioP1;P1;durP2;ratioP2;P2;SDS_P1;SDS_P2;PMS_P1;PMS_P2;Temp;Humidity;BMP_temperature;BMP_pressure;BME280_temperature;BME280_humidity;BME280_pressure;Samples;Min_cycle;Max_cycle;Signal;HPM_P1;HPM_P2
2023/02/05 00:00:44;;;;;;;;;;;-1.10;99.90;;;;;;5069343;28;20113;-72
2023/02/05 00:03:10;;;;;;;13.35;5.25;;;-1.20;99.90;;;;;;5069929;28;20331;-71
2023/02/05 00:05:35;;;;;;;;;;;-1.20;99.90;;;;;;5069032;28;20033;-72
2023/02/05 00:08:01;;;;;;;7.78;3.03;;;-1.10;99.90;;;;;;5070051;28;20277;-72
2023/02/05 00:10:26;;;;;;;;;;;-1.10;99.90;;;;;;5068946;28;20054;-72
2023/02/05 00:12:52;;;;;;;6.60;2.55;;;-1.10;99.90;;;;;;5069795;28;19955;-72
2023/02/05 00:15:18;;;;;;;;;;;-1.10;99.90;;;;;;5070380;28;20056;-71
2023/02/05 00:17:43;;;;;;;12.25;3.50;;;-1.10;99.90;;;;;;5068571;28;19940;-73
2023/02/05 00:20:09;;;;;;;;;;;-1.20;99.90;;;;;;5070166;28;20036;-72
2023/02/05 00:22:35;;;;;;;9.27;3.70;;;-1.20;99.90;;;;;;5069975;28;19909;-72
2023/02/05 00:25:00;;;;;;;;;;;-1.30;99.90;;;;;;5070276;28;20107;-72
2023/02/05 00:27:26;;;;;;;10.77;4.95;;;-1.20;99.90;;;;;;5068546;28;20446;-71
2023/02/05 00:29:52;;;;;;;;;;;-1.30;99.90;;;;;;5070065;28;20440;-73
2023/02/05 00:32:17;;;;;;;4.97;2.20;;;-1.30;99.90;;;;;;5068463;28;19950;-70
2023/02/05 00:34:43;;;;;;;;;;;-1.40;99.90;;;;;;5070058;28;20090;-72
2023/02/05 00:37:09;;;;;;;5.43;1.85;;;-1.40;99.90;;;;;;5069535;28;20463;-72
2023/02/05 00:39:34;;;;;;;;;;;-1.40;99.90;;;;;;5068694;28;20025;-72
2023/02/05 00:42:00;;;;;;;6.18;2.03;;;-1.40;99.90;;;;;;5068135;28;19904;-72
2023/02/05 00:44:25;;;;;;;;;;;-1.40;99.90;;;;;;5068456;28;20024;-72
2023/02/05 00:46:51;;;;;;;6.22;1.98;;;-1.40;99.90;;;;;;5069381;28;19916;-73
2023/02/05 00:49:16;;;;;;;;;;;-1.50;99.90;;;;;;5072008;28;20060;-72
2023/02/05 00:51:42;;;;;;;6.25;2.00;;;-1.40;99.90;;;;;;5073667;28;19947;-72
2023/02/05 00:54:07;;;;;;;;;;;-1.40;99.90;;;;;;5073617;28;20087;-72
2023/02/05 00:56:33;;;;;;;6.95;2.13;;;-1.50;99.90;;;;;;5072243;28;19965;-72
2023/02/05 00:58:59;;;;;;;;;;;-1.50;99.90;;;;;;5073775;28;20032;-72
2023/02/05 01:01:24;;;;;;;4.07;1.30;;;-1.50;99.90;;;;;;5073383;28;19952;-73
2023/02/05 01:03:50;;;;;;;;;;;-1.50;99.90;;;;;;5072418;28;20119;-72
2023/02/05 01:06:16;;;;;;;5.93;2.00;;;-1.50;99.90;;;;;;5073364;28;20661;-72
2023/02/05 01:08:41;;;;;;;5.60;1.77;;;-1.60;99.90;;;;;;5073220;28;20054;-72
2023/02/05 01:11:09;;;;;;;;;;;-1.60;99.90;;;;;;5073590;28;20036;-72
2023/02/05 01:13:34;;;;;;;;;;;-1.70;99.90;;;;;;5073622;28;19916;-72
2023/02/05 01:16:00;;;;;;;6.35;2.10;;;-1.70;99.90;;;;;;5071780;28;19999;-73
2023/02/05 01:18:26;;;;;;;6.18;2.22;;;-1.70;99.90;;;;;;5071625;28;20039;-73
2023/02/05 01:20:51;;;;;;;;;;;-1.80;99.90;;;;;;5071954;28;20434;-73
2023/02/05 01:23:17;;;;;;;35.28;9.52;;;-1.80;99.90;;;;;;5071802;28;19908;-71
2023/02/05 01:25:42;;;;;;;;;;;-1.90;99.90;;;;;;5072080;28;20028;-72
2023/02/05 01:28:08;;;;;;;12.32;4.10;;;-1.90;99.90;;;;;;5072911;28;19908;-72
2023/02/05 01:30:34;;;;;;;12.10;4.18;;;-2.00;99.90;;;;;;5072935;28;20095;-73
2023/02/05 01:33:01;;;;;;;12.25;4.03;;;-2.00;99.90;;;;;;5071361;28;20083;-72
2023/02/05 01:35:27;;;;;;;11.10;4.30;;;-2.10;99.90;;;;;;5072752;28;20040;-72
2023/02/05 01:37:52;;;;;;;;;;;-2.00;99.90;;;;;;5071902;28;20025;-72
2023/02/05 01:40:19;;;;;;;9.23;3.22;;;-2.10;99.90;;;;;;5071218;28;20530;-72
2023/02/05 01:42:44;;;;;;;8.65;3.35;;;-2.20;99.90;;;;;;5071367;28;20092;-72
2023/02/05 01:45:23;;;;;;;;;;;-2.20;99.90;;;;;;5071620;28;20115;-71
2023/02/05 01:47:51;;;;;;;17.20;5.68;;;-2.20;99.90;;;;;;5072569;28;19908;-72
2023/02/05 01:50:26;;;;;;;16.00;5.82;;;-2.30;99.90;;;;;;5072371;28;20017;-72
2023/02/05 01:52:53;;;;;;;12.85;6.38;;;-2.30;99.90;;;;;;5072158;28;20520;-71
2023/02/05 01:55:19;;;;;;;6.82;2.83;;;-2.30;99.90;;;;;;5072489;28;20108;-72
2023/02/05 01:57:47;;;;;;;6.20;2.28;;;-2.40;99.90;;;;;;5072470;28;20078;-73
2023/02/05 02:00:13;;;;;;;6.35;1.83;;;-2.50;99.90;;;;;;5070927;28;20159;-73
2023/02/05 02:02:39;;;;;;;5.43;1.95;;;-2.60;99.90;;;;;;5070919;28;20036;-73
2023/02/05 02:05:14;;;;;;;7.30;1.90;;;-2.70;99.90;;;;;;5072544;28;20096;-73
2023/02/05 02:07:40;;;;;;;5.28;1.65;;;-2.70;99.90;;;;;;5072246;28;20091;-73
2023/02/05 02:10:09;;;;;;;5.50;2.13;;;-2.70;99.90;;;;;;5070756;28;20474;-73
2023/02/05 02:12:38;;;;;;;6.85;2.85;;;-2.70;99.90;;;;;;5071971;28;20031;-73
2023/02/05 02:15:08;;;;;;;6.55;2.45;;;-2.70;99.90;;;;;;5070712;28;20051;-72
2023/02/05 02:17:38;;;;;;;7.05;1.98;;;-2.60;99.90;;;;;;5071623;28;20039;-72
2023/02/05 02:20:05;;;;;;;5.00;1.75;;;-2.70;99.90;;;;;;5071929;28;20025;-73
2023/02/05 02:22:36;;;;;;;4.97;1.75;;;-2.60;99.90;;;;;;5071872;28;20044;-72
2023/02/05 02:25:27;;;;;;;5.68;2.28;;;-2.60;99.90;;;;;;5070649;28;20033;-71
2023/02/05 02:28:06;;;;;;;5.22;1.70;;;-2.60;99.90;;;;;;5070438;28;20032;-72
2023/02/05 02:30:42;;;;;;;5.32;1.92;;;-2.70;99.90;;;;;;5071723;28;20067;-73
2023/02/05 02:33:11;;;;;;;7.47;2.55;;;-2.70;99.90;;;;;;5071703;28;20408;-72
2023/02/05 02:35:51;;;;;;;4.85;1.50;;;-2.60;99.90;;;;;;5071559;28;20086;-72
2023/02/05 02:38:32;;;;;;;5.20;1.55;;;-2.40;99.90;;;;;;5071447;28;20056;-71
2023/02/05 02:41:08;;;;;;;8.15;2.70;;;-2.30;99.90;;;;;;5071563;28;20548;-72
2023/02/05 02:43:44;;;;;;;5.60;1.45;;;-2.20;99.90;;;;;;5070819;28;20070;-72
2023/02/05 02:46:38;;;;;;;4.20;1.52;;;-2.10;94.60;;;;;;5070946;28;20520;-72
2023/02/05 02:49:10;;;;;;;4.72;1.63;;;-2.00;97.30;;;;;;5056347;28;20043;-72
2023/02/05 02:51:38;;;;;;;4.30;0.90;;;-2.00;91.50;;;;;;5069673;28;20512;-72
2023/02/05 02:54:08;;;;;;;4.47;0.98;;;-1.90;89.90;;;;;;5069482;28;20056;-72
2023/02/05 02:56:38;;;;;;;3.83;1.30;;;-1.80;85.20;;;;;;5071147;28;20056;-71
2023/02/05 02:59:11;;;;;;;4.45;1.70;;;-1.90;87.60;;;;;;5071110;28;20074;-72
2023/02/05 03:01:40;;;;;;;3.33;0.90;;;-1.90;85.90;;;;;;5071191;28;20100;-73
2023/02/05 03:04:23;;;;;;;2.55;0.68;;;-1.90;82.60;;;;;;5069855;28;20592;-72
2023/02/05 03:06:52;;;;;;;4.30;0.90;;;-1.80;80.20;;;;;;5070899;28;20044;-72
2023/02/05 03:09:53;;;;;;;3.67;0.85;;;-1.80;78.80;;;;;;5070956;28;20463;-71
2023/02/05 03:12:20;;;;;;;3.83;0.70;;;-1.80;79.30;;;;;;5066573;28;20158;-73
2023/02/05 03:14:45;;;;;;;2.90;0.90;;;-1.90;77.50;;;;;;5070945;28;20025;-72
2023/02/05 03:17:17;;;;;;;2.83;1.13;;;-1.90;78.90;;;;;;5070540;28;20040;-72
2023/02/05 03:19:44;;;;;;;5.32;0.82;;;-1.90;78.40;;;;;;5070723;28;20161;-72
2023/02/05 03:22:10;;;;;;;0.98;0.40;;;-1.80;75.40;;;;;;5069349;28;20507;-72
2023/02/05 03:24:36;;;;;;;;;;;-1.80;76.20;;;;;;5071101;28;20111;-72
2023/02/05 03:27:02;;;;;;;3.28;0.80;;;-1.90;75.80;;;;;;5070612;28;20599;-73
2023/02/05 03:29:35;;;;;;;2.05;0.60;;;-1.90;76.10;;;;;;5070643;28;20116;-72
2023/02/05 03:32:03;;;;;;;2.28;0.50;;;-1.90;76.80;;;;;;5068637;28;20028;-73
2023/02/05 03:34:41;;;;;;;2.65;0.60;;;-1.90;74.70;;;;;;5069172;28;20041;-71
2023/02/05 03:37:08;;;;;;;4.20;1.27;;;-2.00;77.00;;;;;;5070371;28;20099;-72
2023/02/05 03:39:58;;;;;;;4.88;1.58;;;-2.10;77.10;;;;;;5069121;28;20492;-72
2023/02/05 03:42:36;;;;;;;2.22;0.68;;;-2.20;78.40;;;;;;5069017;28;20021;-73
2023/02/05 03:45:13;;;;;;;3.45;0.68;;;-2.20;78.10;;;;;;5070164;28;20028;-72
2023/02/05 03:48:01;;;;;;;3.40;0.90;;;-2.10;74.50;;;;;;5070159;28;20036;-73
2023/02/05 03:50:42;;;;;;;3.35;0.95;;;-2.10;74.50;;;;;;5068700;28;20063;-73
2023/02/05 03:53:22;;;;;;;2.53;0.90;;;-2.10;76.00;;;;;;5069913;28;20721;-72
2023/02/05 03:55:58;;;;;;;2.95;0.40;;;-2.10;74.30;;;;;;5070199;28;20036;-72
2023/02/05 03:58:30;;;;;;;3.27;0.70;;;-2.10;73.90;;;;;;5070120;28;20052;-73
2023/02/05 04:00:56;;;;;;;3.13;0.70;;;-1.90;70.80;;;;;;5068734;28;20024;-72
2023/02/05 04:03:22;;;;;;;4.40;1.80;;;-1.80;70.30;;;;;;5070144;28;20047;-72
2023/02/05 04:05:47;;;;;;;;;;;-1.80;71.20;;;;;;5069165;28;20025;-72
2023/02/05 04:08:13;;;;;;;6.20;3.05;;;-1.90;71.20;;;;;;5069922;28;19958;-73
2023/02/05 04:10:39;;;;;;;;;;;-1.90;70.80;;;;;;5070408;28;20032;-71
2023/02/05 04:13:04;;;;;;;2.35;0.75;;;-2.00;72.10;;;;;;5068460;28;20354;-73
2023/02/05 04:15:30;;;;;;;;;;;-2.10;73.30;;;;;;5068778;28;20024;-72
2023/02/05 04:17:58;;;;;;;2.97;0.70;;;-2.10;73.00;;;;;;5069462;28;19904;-73
2023/02/05 04:20:24;;;;;;;1.25;0.40;;;-2.10;72.00;;;;;;5069978;28;20074;-73
2023/02/05 04:22:49;;;;;;;;;;;-2.10;72.00;;;;;;5067867;28;20024;-73
2023/02/05 04:25:15;;;;;;;1.90;0.70;;;-2.20;71.20;;;;;;5068103;28;19911;-74
2023/02/05 04:27:41;;;;;;;10.68;4.47;;;-2.20;71.40;;;;;;5068214;28;20071;-74
2023/02/05 04:30:07;;;;;;;;;;;-2.20;71.10;;;;;;5068460;28;20048;-73
2023/02/05 04:32:32;;;;;;;3.55;0.60;;;-2.10;70.20;;;;;;5069578;28;20023;-73
2023/02/05 04:34:58;;;;;;;2.25;0.80;;;-2.00;68.30;;;;;;5069410;28;20079;-72
2023/02/05 04:37:24;;;;;;;;;;;-2.10;69.00;;;;;;5070185;28;20100;-72
2023/02/05 04:39:50;;;;;;;3.92;0.90;;;-2.10;69.40;;;;;;5068197;28;19908;-72
2023/02/05 04:42:16;;;;;;;5.90;1.77;;;-2.20;70.00;;;;;;5067759;28;20098;-71
2023/02/05 04:44:41;;;;;;;;;;;-2.30;69.20;;;;;;5068289;28;20489;-71
2023/02/05 04:47:07;;;;;;;3.17;1.00;;;-2.30;69.00;;;;;;5069404;28;20323;-73
2023/02/05 04:49:33;;;;;;;;;;;-2.40;68.30;;;;;;5069934;28;20028;-72
2023/02/05 04:51:59;;;;;;;5.60;1.17;;;-2.40;69.50;;;;;;5068940;28;19908;-71
2023/02/05 04:54:24;;;;;;;1.52;0.55;;;-2.50;69.60;;;;;;5068951;28;20032;-72
2023/02/05 04:56:50;;;;;;;;;;;-2.50;70.50;;;;;;5069875;28;20031;-72
2023/02/05 04:59:15;;;;;;;3.15;1.23;;;-2.60;71.60;;;;;;5069467;28;19961;-71
2023/02/05 05:01:41;;;;;;;4.40;1.08;;;-2.60;72.50;;;;;;5069039;28;20028;-71
2023/02/05 05:04:07;;;;;;;4.45;1.05;;;-2.60;72.60;;;;;;5069066;28;20044;-71
2023/02/05 05:06:33;;;;;;;2.78;0.80;;;-2.70;73.00;;;;;;5068104;28;20033;-72
2023/02/05 05:08:59;;;;;;;2.30;0.80;;;-2.80;73.30;;;;;;5067871;28;20035;-71
2023/02/05 05:11:24;;;;;;;;;;;-2.80;73.30;;;;;;5069880;28;20032;-71
2023/02/05 05:13:51;;;;;;;4.28;1.42;;;-2.80;73.90;;;;;;5068957;28;19923;-71
2023/02/05 05:16:17;;;;;;;5.07;1.55;;;-2.90;75.10;;;;;;5069292;28;20481;-71
2023/02/05 05:18:43;;;;;;;3.47;0.60;;;-2.90;76.10;;;;;;5068050;28;20063;-71
2023/02/05 05:21:09;;;;;;;2.13;0.65;;;-2.60;69.20;;;;;;5067542;28;20608;-70
2023/02/05 05:23:37;;;;;;;;;;;-2.50;68.60;;;;;;5069892;28;20032;-71
2023/02/05 05:26:07;;;;;;;5.80;0.90;;;-2.50;70.00;;;;;;5069007;28;19914;-71
2023/02/05 05:28:34;;;;;;;2.75;0.88;;;-2.60;70.50;;;;;;5067758;28;20090;-71
2023/02/05 05:31:09;;;;;;;2.85;1.00;;;-2.50;69.20;;;;;;5069152;28;20025;-71
2023/02/05 05:33:35;;;;;;;2.53;1.08;;;-2.40;69.40;;;;;;5069005;28;20036;-73
2023/02/05 05:36:01;;;;;;;3.83;1.20;;;-2.40;67.80;;;;;;5072096;28;20020;-73
2023/02/05 05:38:26;;;;;;;3.67;0.90;;;-2.40;68.20;;;;;;5072661;28;20070;-71
2023/02/05 05:43:45;;;;;;;4.78;1.15;;;-2.40;67.70;;;;;;5072481;28;19959;-72
2023/02/05 05:46:13;;;;;;;1.98;0.60;;;-2.40;67.80;;;;;;5071160;28;20028;-72
2023/02/05 05:48:39;;;;;;;2.75;0.77;;;-2.30;66.50;;;;;;5072591;28;20024;-72
2023/02/05 05:51:05;;;;;;;7.75;2.05;;;-2.30;66.70;;;;;;5071163;28;20043;-71
2023/02/05 05:53:31;;;;;;;1.90;0.60;;;-2.30;67.00;;;;;;5072105;28;20055;-71
2023/02/05 05:55:56;;;;;;;3.28;1.20;;;-2.20;65.80;;;;;;5070948;28;20029;-73
2023/02/05 05:58:23;;;;;;;3.65;1.33;;;-2.20;65.60;;;;;;5072262;28;20078;-76
2023/02/05 06:00:49;;;;;;;7.65;3.10;;;-2.20;65.50;;;;;;5072888;28;20109;-75
2023/02/05 06:03:15;;;;;;;2.75;0.98;;;-2.20;64.20;;;;;;5072903;28;20103;-76
2023/02/05 06:05:40;;;;;;;;;;;-2.20;64.90;;;;;;5071403;28;20111;-74
2023/02/05 06:08:06;;;;;;;2.53;0.60;;;-2.20;65.20;;;;;;5074148;28;19950;-77
2023/02/05 06:10:32;;;;;;;;;;;-2.10;64.10;;;;;;5073079;28;20028;-77
2023/02/05 06:12:58;;;;;;;9.00;3.00;;;-2.20;63.90;;;;;;5073266;28;19977;-76
2023/02/05 06:15:25;;;;;;;12.70;4.13;;;-2.20;64.60;;;;;;5071993;28;20090;-76
2023/02/05 06:17:51;;;;;;;7.95;2.50;;;-2.30;65.50;;;;;;5071681;28;20021;-75
2023/02/05 06:20:17;;;;;;;4.32;1.30;;;-2.40;66.30;;;;;;5071940;28;20039;-76
2023/02/05 06:22:43;;;;;;;16.48;6.35;;;-2.50;66.20;;;;;;5070638;28;20024;-76
2023/02/05 06:25:08;;;;;;;34.90;11.93;;;-2.50;66.30;;;;;;5070281;28;20028;-76
2023/02/05 06:27:34;;;;;;;12.93;4.50;;;-2.50;66.10;;;;;;5070544;28;20020;-75
2023/02/05 06:30:00;;;;;;;;;;;-2.40;66.60;;;;;;5072386;28;20028;-76
2023/02/05 06:32:26;;;;;;;4.95;1.67;;;-2.40;65.60;;;;;;5071765;28;19915;-75
2023/02/05 06:34:51;;;;;;;;;;;-2.40;65.40;;;;;;5072122;28;20079;-75
2023/02/05 06:37:17;;;;;;;5.28;2.25;;;-2.30;65.00;;;;;;5071671;28;19998;-76
2023/02/05 06:39:42;;;;;;;;;;;-2.30;64.70;;;;;;5070703;28;20028;-76
2023/02/05 06:42:08;;;;;;;6.90;2.38;;;-2.30;65.40;;;;;;5070571;28;19999;-76
2023/02/05 06:44:34;;;;;;;2.85;0.93;;;-2.30;65.90;;;;;;5070299;28;20075;-76
2023/02/05 06:47:01;;;;;;;10.32;3.90;;;-2.20;64.40;;;;;;5070659;28;20039;-76
2023/02/05 06:49:26;;;;;;;8.38;3.50;;;-1.90;63.90;;;;;;5071389;28;20062;-76
2023/02/05 06:51:52;;;;;;;;;;;-1.50;63.60;;;;;;5071429;28;20024;-76
2023/02/05 06:54:18;;;;;;;5.13;2.05;;;-1.00;61.80;;;;;;5069872;28;20037;-76
2023/02/05 06:56:44;;;;;;;6.78;2.83;;;-0.50;59.00;;;;;;5071372;28;20021;-76
2023/02/05 06:59:09;;;;;;;;;;;-0.20;59.00;;;;;;5069888;28;20054;-77
2023/02/05 07:01:35;;;;;;;8.55;3.92;;;0.30;56.50;;;;;;5071085;28;19904;-76
2023/02/05 07:04:01;;;;;;;;;;;0.60;56.10;;;;;;5071617;28;20036;-77
2023/02/05 07:06:27;;;;;;;3.75;1.45;;;0.80;56.50;;;;;;5071078;28;20458;-76
2023/02/05 07:08:54;;;;;;;4.80;2.17;;;1.20;55.40;;;;;;5069683;28;20024;-76
2023/02/05 07:11:21;;;;;;;4.38;2.10;;;1.50;54.20;;;;;;5070975;28;20492;-76
2023/02/05 07:13:47;;;;;;;5.75;2.78;;;1.80;53.90;;;;;;5070822;28;20060;-76
2023/02/05 07:16:12;;;;;;;;;;;2.10;52.80;;;;;;5071128;28;20057;-76
2023/02/05 07:18:38;;;;;;;2.65;1.20;;;2.30;50.70;;;;;;5069227;28;19908;-76
2023/02/05 07:21:05;;;;;;;;;;;2.30;50.40;;;;;;5069895;28;20039;-76
2023/02/05 07:23:30;;;;;;;8.48;2.50;;;2.20;50.10;;;;;;5069275;28;19908;-76
2023/02/05 07:25:56;;;;;;;;;;;2.20;50.40;;;;;;5071217;28;20520;-75
2023/02/05 07:28:21;;;;;;;6.63;2.72;;;2.00;50.10;;;;;;5069119;28;19912;-76
2023/02/05 07:30:48;;;;;;;;;;;1.90;50.00;;;;;;5071281;28;20370;-76
2023/02/05 07:33:15;;;;;;;8.68;3.25;;;1.90;50.10;;;;;;5069291;28;19914;-76
2023/02/05 07:35:41;;;;;;;16.00;6.60;;;1.70;50.50;;;;;;5069114;28;20404;-76
2023/02/05 07:38:06;;;;;;;24.67;10.98;;;1.80;49.80;;;;;;5069156;28;20024;-77
2023/02/05 07:40:32;;;;;;;;;;;1.80;50.10;;;;;;5069529;28;20035;-75
2023/02/05 07:42:58;;;;;;;12.30;5.55;;;1.70;50.80;;;;;;5070534;28;19951;-76
2023/02/05 07:45:24;;;;;;;3.70;1.00;;;2.10;50.20;;;;;;5070340;28;20028;-76
2023/02/05 07:47:49;;;;;;;;;;;2.10;50.10;;;;;;5069357;28;20036;-77
2023/02/05 07:50:16;;;;;;;3.72;1.23;;;2.30;48.70;;;;;;5070277;28;19908;-76
2023/02/05 07:52:42;;;;;;;9.57;3.65;;;2.30;48.60;;;;;;5070212;28;20052;-76
2023/02/05 07:55:08;;;;;;;4.40;1.50;;;2.20;49.50;;;;;;5070278;28;20090;-77
2023/02/05 07:57:34;;;;;;;;;;;2.20;49.50;;;;;;5069107;28;20521;-77
2023/02/05 07:59:59;;;;;;;5.25;2.17;;;2.20;48.90;;;;;;5070189;28;20436;-75
2023/02/05 08:02:25;;;;;;;;;;;2.20;49.10;;;;;;5070558;28;20568;-77
2023/02/05 08:04:51;;;;;;;3.08;0.95;;;2.50;48.90;;;;;;5068600;28;19961;-76
2023/02/05 08:07:16;;;;;;;;;;;2.80;48.20;;;;;;5070172;28;20036;-77
2023/02/05 08:09:42;;;;;;;7.35;2.55;;;2.80;47.60;;;;;;5069944;28;19969;-77
2023/02/05 08:12:08;;;;;;;;;;;2.70;48.60;;;;;;5069145;28;20085;-77
2023/02/05 08:14:34;;;;;;;5.30;2.28;;;2.90;48.00;;;;;;5069896;28;19912;-77
2023/02/05 08:17:00;;;;;;;9.02;3.80;;;2.90;47.30;;;;;;5069894;28;20025;-78
2023/02/05 08:19:25;;;;;;;;;;;2.90;47.40;;;;;;5070331;28;20481;-77
2023/02/05 08:21:52;;;;;;;5.97;2.10;;;2.80;47.70;;;;;;5068658;28;19919;-79
2023/02/05 08:24:17;;;;;;;5.60;2.15;;;2.90;48.10;;;;;;5069882;28;20485;-77
2023/02/05 08:26:43;;;;;;;;;;;3.20;48.00;;;;;;5070236;28;20028;-78
2023/02/05 08:29:09;;;;;;;5.13;1.73;;;3.40;47.00;;;;;;5068042;28;20785;-77
2023/02/05 08:31:35;;;;;;;3.17;1.38;;;3.50;46.70;;;;;;5069702;28;20131;-78
2023/02/05 08:34:02;;;;;;;3.50;1.50;;;3.60;45.80;;;;;;5068383;28;20033;-78
2023/02/05 08:36:28;;;;;;;5.70;2.78;;;3.70;45.50;;;;;;5068237;28;20111;-76
2023/02/05 08:38:53;;;;;;;;;;;3.60;46.70;;;;;;5070022;28;20525;-76
2023/02/05 08:41:19;;;;;;;4.78;1.80;;;3.40;45.70;;;;;;5069301;28;19912;-79
2023/02/05 08:43:45;;;;;;;;;;;3.40;46.80;;;;;;5069686;28;20035;-77
2023/02/05 08:46:14;;;;;;;3.28;1.55;;;3.50;46.80;;;;;;5068126;28;19958;-76
2023/02/05 08:48:40;;;;;;;16.23;7.75;;;3.80;45.70;;;;;;5068342;28;20025;-78
2023/02/05 08:51:07;;;;;;;;;;;3.80;44.70;;;;;;5069930;28;20038;-77
2023/02/05 08:53:33;;;;;;;17.40;7.88;;;3.80;46.20;;;;;;5068023;28;19924;-77
2023/02/05 08:55:59;;;;;;;;;;;4.00;46.50;;;;;;5068590;28;20043;-78
2023/02/05 08:58:26;;;;;;;1.90;0.80;;;4.20;45.20;;;;;;5068070;28;19908;-78
2023/02/05 09:00:52;;;;;;;3.13;1.27;;;4.30;44.90;;;;;;5069410;28;20058;-77
2023/02/05 09:03:18;;;;;;;1.92;0.75;;;4.30;44.60;;;;;;5068201;28;20094;-77
2023/02/05 09:05:44;;;;;;;2.65;1.15;;;4.30;44.70;;;;;;5069489;28;20032;-76
2023/02/05 09:08:10;;;;;;;2.95;1.00;;;4.50;45.50;;;;;;5069366;28;20128;-77
2023/02/05 09:10:36;;;;;;;;;;;4.90;44.20;;;;;;5072430;28;20099;-77
2023/02/05 09:13:01;;;;;;;4.82;2.00;;;4.90;44.00;;;;;;5071836;28;19920;-75
2023/02/05 09:15:27;;;;;;;;;;;5.20;44.10;;;;;;5073722;28;20024;-77
2023/02/05 09:17:52;;;;;;;3.30;1.30;;;5.50;44.40;;;;;;5072927;28;19915;-77
2023/02/05 09:20:18;;;;;;;;;;;5.70;42.90;;;;;;5072286;28;20028;-76
2023/02/05 09:22:43;;;;;;;2.10;0.80;;;5.50;43.30;;;;;;5071900;28;19950;-76
2023/02/05 09:25:10;;;;;;;;;;;5.50;42.40;;;;;;5073425;28;20036;-76
2023/02/05 09:27:36;;;;;;;24.33;18.87;;;5.40;43.80;;;;;;5072999;28;19908;-77
2023/02/05 09:30:01;;;;;;;;;;;5.70;42.90;;;;;;5073203;28;20416;-76
2023/02/05 09:32:27;;;;;;;3.10;1.85;;;5.70;43.70;;;;;;5071388;28;19909;-76
2023/02/05 09:34:53;;;;;;;;;;;5.80;43.90;;;;;;5071671;28;20378;-77
2023/02/05 09:37:18;;;;;;;4.93;2.22;;;6.00;43.60;;;;;;5071374;28;19905;-76
2023/02/05 09:39:44;;;;;;;;;;;6.10;42.30;;;;;;5071593;28;20032;-77
2023/02/05 09:42:42;;;;;;;8.68;4.18;;;6.00;42.40;;;;;;5072600;28;19904;-78
2023/02/05 09:46:00;;;;;;;7.32;2.67;;;5.70;42.90;;;;;;5072577;28;20031;-77
2023/02/05 09:48:48;;;;;;;;;;;5.50;43.20;;;;;;5039775;28;20036;-76
2023/02/05 09:51:16;;;;;;;3.17;1.02;;;4.90;43.90;;;;;;5072530;28;19936;-76
2023/02/05 09:53:47;;;;;;;3.83;1.40;;;3.90;44.70;;;;;;5071019;28;20049;-77
2023/02/05 09:56:15;;;;;;;4.32;2.03;;;3.80;45.70;;;;;;5071257;28;20514;-77
2023/02/05 09:58:48;;;;;;;4.50;1.83;;;3.60;47.70;;;;;;5072377;28;20054;-77
2023/02/05 10:01:43;;;;;;;3.13;1.10;;;3.40;48.40;;;;;;5071222;28;20021;-77
2023/02/05 10:04:10;;;;;;;5.68;2.30;;;3.50;47.20;;;;;;5065502;28;20033;-76
2023/02/05 10:07:34;;;;;;;116.07;55.35;;;3.50;47.20;;;;;;5070410;28;20400;-77
2023/02/05 10:10:14;;;;;;;14.75;7.65;;;3.10;49.50;;;;;;5031241;28;20029;-78
2023/02/05 10:13:02;;;;;;;84.45;38.55;;;2.90;49.10;;;;;;5072312;28;20048;-79
2023/02/05 10:15:39;;;;;;;4.22;1.73;;;2.70;49.10;;;;;;5072345;28;20039;-78
2023/02/05 10:18:27;;;;;;;25.85;10.32;;;2.80;47.70;;;;;;5070963;28;20034;-78
2023/02/05 10:21:22;;;;;;;19.10;6.88;;;2.70;49.30;;;;;;5070597;28;20024;-79
2023/02/05 10:23:57;;;;;;;5.55;1.80;;;2.60;48.90;;;;;;5066466;28;20401;-78
2023/02/05 10:26:31;;;;;;;4.25;1.63;;;2.60;49.80;;;;;;5071812;28;20111;-79
2023/02/05 10:29:22;;;;;;;3.75;1.00;;;2.60;49.20;;;;;;5071561;28;20020;-77
2023/02/05 10:32:09;;;;;;;24.88;7.53;;;2.60;48.90;;;;;;5070414;28;20020;-78
2023/02/05 10:34:45;;;;;;;5.85;1.83;;;2.40;49.50;;;;;;5070398;28;20457;-77
2023/02/05 10:37:19;;;;;;;4.77;0.80;;;2.50;48.20;;;;;;5071766;28;20109;-78
2023/02/05 10:39:46;;;;;;;3.83;1.15;;;2.40;48.40;;;;;;5070227;28;20736;-77
2023/02/05 10:42:25;;;;;;;9.38;4.18;;;2.30;48.00;;;;;;5071848;28;20025;-79
2023/02/05 10:45:05;;;;;;;14.60;6.20;;;2.30;48.60;;;;;;5070268;28;20024;-76
2023/02/05 10:47:55;;;;;;;53.83;26.48;;;2.30;49.50;;;;;;5071448;28;20029;-77
2023/02/05 10:50:46;;;;;;;8.90;5.05;;;2.30;49.10;;;;;;5071547;28;20028;-76
2023/02/05 10:53:14;;;;;;;3.92;2.00;;;2.20;48.90;;;;;;5071428;28;20052;-76
2023/02/05 10:55:40;;;;;;;3.88;1.85;;;2.20;48.40;;;;;;5070091;28;20032;-77
2023/02/05 10:58:24;;;;;;;;;;;2.20;48.70;;;;;;5071709;28;20024;-77
2023/02/05 11:00:50;;;;;;;4.60;1.73;;;2.10;48.60;;;;;;5070687;28;19908;-77
2023/02/05 11:03:17;;;;;;;;;;;2.10;49.80;;;;;;5070075;28;20032;-76
2023/02/05 11:05:45;;;;;;;4.70;1.67;;;2.30;50.20;;;;;;5069943;28;19909;-77
2023/02/05 11:08:36;;;;;;;8.82;4.55;;;2.50;49.50;;;;;;5069706;28;20055;-78
2023/02/05 11:11:03;;;;;;;9.70;4.68;;;2.40;48.80;;;;;;5069292;28;20086;-77
2023/02/05 11:13:29;;;;;;;4.00;1.98;;;2.30;48.50;;;;;;5070747;28;20044;-78
2023/02/05 11:16:13;;;;;;;4.78;1.85;;;2.30;49.30;;;;;;5070966;28;20040;-78
2023/02/05 11:18:41;;;;;;;5.68;1.88;;;2.50;50.90;;;;;;5070881;28;20032;-77
2023/02/05 11:21:09;;;;;;;5.68;1.95;;;2.60;50.90;;;;;;5069301;28;20032;-77
2023/02/05 11:23:39;;;;;;;11.55;4.93;;;2.60;49.90;;;;;;5070405;28;20062;-76
2023/02/05 11:26:19;;;;;;;30.33;12.10;;;2.70;49.20;;;;;;5070711;28;20174;-77
2023/02/05 11:28:46;;;;;;;32.53;13.93;;;2.60;48.30;;;;;;5070595;28;20024;-78
2023/02/05 11:31:24;;;;;;;7.78;3.70;;;2.60;48.40;;;;;;5070466;28;20055;-77
2023/02/05 11:33:50;;;;;;;6.00;2.70;;;2.50;48.10;;;;;;5069474;28;20037;-76
2023/02/05 11:36:17;;;;;;;;;;;2.60;48.60;;;;;;5069500;28;20027;-76
2023/02/05 11:38:56;;;;;;;4.82;1.67;;;2.50;48.70;;;;;;5070101;28;19904;-76
2023/02/05 11:41:52;;;;;;;4.95;1.67;;;2.40;49.60;;;;;;5069026;28;20055;-77
2023/02/05 11:44:24;;;;;;;5.85;1.70;;;2.50;49.60;;;;;;5070188;28;20036;-75
2023/02/05 11:46:55;;;;;;;6.47;1.60;;;2.50;49.10;;;;;;5070058;28;20066;-77
2023/02/05 11:49:34;;;;;;;5.57;2.15;;;2.40;49.40;;;;;;5070409;28;20514;-75
2023/02/05 11:52:08;;;;;;;4.88;1.80;;;2.20;49.00;;;;;;5068043;28;20029;-76
2023/02/05 11:54:35;;;;;;;3.13;1.08;;;2.30;48.20;;;;;;5070150;28;20722;-76
2023/02/05 11:57:21;;;;;;;14.25;6.53;;;2.20;47.80;;;;;;5070270;28;20052;-78
2023/02/05 12:00:00;;;;;;;5.15;1.88;;;2.20;48.00;;;;;;5070050;28;20032;-76
2023/02/05 12:02:29;;;;;;;3.78;1.60;;;2.30;48.80;;;;;;5069814;28;20028;-76
2023/02/05 12:05:03;;;;;;;4.28;1.67;;;2.20;49.20;;;;;;5070120;28;20538;-76
2023/02/05 12:07:36;;;;;;;5.18;2.20;;;2.20;49.20;;;;;;5069968;28;20827;-77
2023/02/05 12:10:02;;;;;;;11.23;4.15;;;2.30;48.80;;;;;;5069949;28;20087;-78
2023/02/05 12:12:28;;;;;;;;;;;2.40;50.70;;;;;;5069139;28;20017;-77
2023/02/05 12:15:12;;;;;;;4.70;1.77;;;2.60;50.60;;;;;;5069874;28;20346;-77
2023/02/05 12:17:58;;;;;;;14.35;6.07;;;2.60;50.00;;;;;;5068933;28;20730;-76
2023/02/05 12:20:32;;;;;;;23.00;8.32;;;2.40;49.20;;;;;;5069951;28;20036;-76
2023/02/05 12:23:25;;;;;;;15.80;7.78;;;2.40;49.00;;;;;;5069684;28;20028;-77
2023/02/05 12:26:10;;;;;;;9.00;3.25;;;2.20;48.70;;;;;;5068555;28;20024;-75
2023/02/05 12:29:00;;;;;;;17.95;7.35;;;2.10;49.00;;;;;;5068096;28;20047;-76
2023/02/05 12:31:35;;;;;;;7.45;2.50;;;1.90;50.50;;;;;;5069579;28;20494;-76
2023/02/05 12:34:52;;;;;;;6.00;2.67;;;1.70;50.10;;;;;;5068382;28;20062;-76
2023/02/05 12:37:27;;;;;;;5.75;1.20;;;1.60;50.40;;;;;;5068040;28;20029;-76
2023/02/05 12:40:17;;;;;;;8.98;2.28;;;1.60;50.60;;;;;;5069299;28;20033;-76
2023/02/05 12:43:38;;;;;;;49.38;14.27;;;1.70;50.40;;;;;;5068075;28;20028;-76
2023/02/05 12:46:30;;;;;;;9.48;4.45;;;1.80;50.30;;;;;;5045767;28;20650;-77
2023/02/05 12:49:40;;;;;;;4.07;1.50;;;1.90;49.20;;;;;;5072165;28;20047;-77
2023/02/05 12:52:20;;;;;;;9.10;3.33;;;2.00;48.90;;;;;;5061295;28;20036;-76
2023/02/05 12:55:11;;;;;;;9.07;3.22;;;2.10;49.70;;;;;;5072324;28;20079;-76
2023/02/05 12:57:45;;;;;;;11.45;6.15;;;2.10;50.60;;;;;;5073887;28;20058;-76
2023/02/05 13:00:22;;;;;;;5.10;1.25;;;2.20;49.80;;;;;;5073546;28;20017;-77
2023/02/05 13:03:23;;;;;;;6.28;3.33;;;2.20;49.20;;;;;;5072280;28;20115;-77
2023/02/05 13:05:57;;;;;;;4.10;2.28;;;2.40;49.20;;;;;;5071963;28;20028;-76
2023/02/05 13:08:43;;;;;;;3.15;1.33;;;2.40;48.30;;;;;;5073411;28;20040;-77
2023/02/05 13:11:18;;;;;;;8.93;4.82;;;2.40;48.20;;;;;;5073298;28;20136;-77
2023/02/05 13:14:06;;;;;;;7.47;3.67;;;2.30;48.30;;;;;;5073172;28;20162;-77
2023/02/05 13:16:46;;;;;;;37.90;18.80;;;2.20;48.30;;;;;;5071854;28;20143;-75
2023/02/05 13:19:38;;;;;;;89.75;41.13;;;2.30;49.40;;;;;;5071828;28;20381;-76
2023/02/05 13:30:50;;;;;;;5.13;1.70;;;2.30;49.60;;;;;;5073039;28;20610;-76
2023/02/05 13:33:16;;;;;;;7.68;3.47;;;2.20;49.80;;;;;;5071431;28;20664;-76
2023/02/05 13:36:11;;;;;;;8.68;2.95;;;2.30;50.80;;;;;;5073238;28;20036;-77
2023/02/05 13:39:09;;;;;;;20.60;10.30;;;2.30;51.30;;;;;;5071522;28;20511;-77